Time;durP1;ratioP1;P1;durP2;ratioP2;P2;SDS_P1;SDS_P2;PMS_P1;PMS_P2;Temp;Humidity;BMP_temperature;BMP_pressure;BME280_temperature;BME280_humidity;BME280_pressure;Samples;Min_cycle;Max_cycle;Signal;HPM_P1;HPM_P2
2022/06/10 00:00:15;;;;;;;1.48;1.25;;;21.70;54.30;;;;;;4995664;28;20280;-70
2022/06/10 00:02:43;;;;;;;1.83;1.15;;;21.70;53.60;;;;;;4994180;28;20232;-70
2022/06/10 00:05:11;;;;;;;1.30;1.30;;;21.60;53.60;;;;;;4995562;28;20188;-70
2022/06/10 00:07:39;;;;;;;1.33;1.17;;;21.70;53.60;;;;;;4994294;28;20232;-70
2022/06/10 00:10:07;;;;;;;1.27;1.25;;;21.70;53.40;;;;;;4995624;28;20561;-70
2022/06/10 00:12:34;;;;;;;1.30;1.23;;;21.70;53.70;;;;;;4994276;28;20217;-70
2022/06/10 00:15:03;;;;;;;2.00;1.30;;;21.60;53.60;;;;;;4993933;28;20709;-70
2022/06/10 00:17:30;;;;;;;1.30;1.20;;;21.60;53.60;;;;;;4997863;28;20222;-70
2022/06/10 00:19:57;;;;;;;1.33;1.23;;;21.60;53.50;;;;;;4998072;28;20197;-70
2022/06/10 00:22:25;;;;;;;1.40;1.30;;;21.60;53.50;;;;;;4994401;28;20597;-70
2022/06/10 00:24:52;;;;;;;1.60;1.30;;;21.60;53.60;;;;;;4994414;28;20206;-70
2022/06/10 00:27:19;;;;;;;1.13;1.02;;;21.60;53.70;;;;;;4995302;28;20276;-69
2022/06/10 00:29:46;;;;;;;1.52;1.13;;;21.60;53.70;;;;;;4993934;28;20237;-70
2022/06/10 00:32:14;;;;;;;1.35;1.25;;;21.50;53.80;;;;;;4993978;28;20205;-70
2022/06/10 00:34:41;;;;;;;1.10;1.10;;;21.60;53.80;;;;;;4995112;28;20202;-69
2022/06/10 00:37:09;;;;;;;1.38;1.27;;;21.50;53.70;;;;;;4995285;28;20209;-70
2022/06/10 00:39:36;;;;;;;1.40;1.30;;;21.50;53.60;;;;;;4993634;28;20283;-70
2022/06/10 00:42:03;;;;;;;1.00;1.00;;;21.50;53.60;;;;;;4993429;28;20198;-70
2022/06/10 00:44:37;;;;;;;1.38;1.27;;;21.50;53.70;;;;;;4993545;28;20205;-70
2022/06/10 00:47:05;;;;;;;1.10;1.10;;;21.50;53.90;;;;;;4993578;28;20256;-70
2022/06/10 00:49:33;;;;;;;1.40;1.20;;;21.40;54.00;;;;;;4995059;28;20196;-69
2022/06/10 00:52:01;;;;;;;1.30;1.20;;;21.50;53.80;;;;;;5001957;28;20235;-70
2022/06/10 00:54:35;;;;;;;1.05;1.05;;;21.50;53.90;;;;;;5001133;28;20300;-70
2022/06/10 00:57:04;;;;;;;1.13;1.10;;;21.50;54.00;;;;;;4997774;28;20217;-70
2022/06/10 00:59:33;;;;;;;1.30;1.20;;;21.40;54.00;;;;;;4993670;28;20201;-70
2022/06/10 01:02:03;;;;;;;1.27;1.17;;;21.50;54.10;;;;;;4994523;28;20200;-69
2022/06/10 01:04:30;;;;;;;1.20;1.20;;;21.40;54.10;;;;;;4993385;28;20232;-69
2022/06/10 01:06:59;;;;;;;1.48;1.40;;;21.40;53.90;;;;;;4992921;28;20578;-70
2022/06/10 01:09:26;;;;;;;1.35;1.25;;;21.40;53.90;;;;;;4993011;28;20201;-69
2022/06/10 01:12:28;;;;;;;1.10;1.10;;;21.40;53.90;;;;;;4993365;28;20228;-69
2022/06/10 01:15:03;;;;;;;1.17;1.10;;;21.40;54.00;;;;;;4975888;28;20205;-70
2022/06/10 01:17:38;;;;;;;1.33;1.23;;;21.40;54.10;;;;;;4992847;28;20227;-70
2022/06/10 01:20:23;;;;;;;1.33;1.23;;;21.40;54.10;;;;;;4992851;28;20201;-69
2022/06/10 01:23:17;;;;;;;1.10;1.10;;;21.30;54.10;;;;;;4993089;28;20300;-70
2022/06/10 01:26:06;;;;;;;1.38;1.08;;;21.30;54.20;;;;;;4993042;28;20189;-70
2022/06/10 01:28:43;;;;;;;1.20;1.20;;;21.30;54.30;;;;;;4981128;28;20229;-69
2022/06/10 01:31:13;;;;;;;1.77;1.30;;;21.30;54.30;;;;;;4992946;28;20196;-70
2022/06/10 01:33:50;;;;;;;1.42;1.33;;;21.30;54.30;;;;;;4992746;28;20194;-70
2022/06/10 01:36:21;;;;;;;1.42;1.33;;;21.30;54.20;;;;;;4992768;28;20220;-69
2022/06/10 01:38:51;;;;;;;1.33;1.23;;;21.20;54.10;;;;;;4994027;28;20220;-70
2022/06/10 01:41:22;;;;;;;1.20;1.10;;;21.20;54.30;;;;;;4992745;28;20620;-70
2022/06/10 01:43:54;;;;;;;1.30;1.20;;;21.20;54.30;;;;;;4993269;28;20252;-70
2022/06/10 01:46:26;;;;;;;1.25;1.25;;;21.20;54.20;;;;;;4994135;28;20178;-68
2022/06/10 01:48:55;;;;;;;1.30;1.20;;;21.20;54.30;;;;;;4993832;28;20698;-70
2022/06/10 01:51:25;;;;;;;1.70;1.20;;;21.20;54.30;;;;;;4993094;28;20213;-70
2022/06/10 01:53:55;;;;;;;1.58;1.30;;;21.20;54.40;;;;;;4993383;28;20217;-69
2022/06/10 01:56:25;;;;;;;1.20;1.20;;;21.20;54.20;;;;;;4992847;28;20690;-69
2022/06/10 01:58:53;;;;;;;1.75;1.27;;;21.10;54.40;;;;;;4992905;28;20225;-69
2022/06/10 02:01:23;;;;;;;1.40;1.30;;;21.10;54.40;;;;;;4995088;28;20228;-70
2022/06/10 02:03:53;;;;;;;1.30;1.20;;;21.10;54.50;;;;;;4996501;28;20201;-70
2022/06/10 02:06:23;;;;;;;1.90;1.38;;;21.10;54.30;;;;;;4997845;28;20269;-70
2022/06/10 02:08:51;;;;;;;1.63;1.33;;;21.10;54.50;;;;;;4997536;28;20217;-70
2022/06/10 02:11:20;;;;;;;0.90;0.90;;;21.10;54.50;;;;;;4996428;28;20288;-70
2022/06/10 02:13:49;;;;;;;1.20;1.20;;;21.10;54.50;;;;;;4995998;28;20201;-70
2022/06/10 02:16:18;;;;;;;1.40;1.30;;;21.00;54.40;;;;;;4996294;28;20221;-69
2022/06/10 02:18:48;;;;;;;1.40;1.30;;;21.00;54.40;;;;;;4996104;28;20272;-69
2022/06/10 02:21:17;;;;;;;1.20;1.10;;;21.00;54.50;;;;;;4997606;28;20192;-70
2022/06/10 02:23:46;;;;;;;1.50;1.35;;;21.00;54.50;;;;;;4996129;28;20202;-70
2022/06/10 02:26:13;;;;;;;1.17;1.13;;;21.00;54.70;;;;;;4996231;28;20201;-70
2022/06/10 02:28:41;;;;;;;1.40;1.30;;;21.00;54.60;;;;;;4995885;28;20226;-70
2022/06/10 02:31:12;;;;;;;1.80;1.30;;;21.00;54.60;;;;;;4996360;28;20282;-69
2022/06/10 02:33:39;;;;;;;1.40;1.30;;;21.00;54.60;;;;;;4997511;28;20658;-70
2022/06/10 02:36:12;;;;;;;1.27;1.27;;;21.00;54.30;;;;;;4995777;28;20592;-70
2022/06/10 02:38:43;;;;;;;1.70;1.50;;;20.90;54.50;;;;;;4997176;28;20216;-70
2022/06/10 02:41:12;;;;;;;1.30;1.20;;;20.90;54.70;;;;;;4995661;28;20193;-70
2022/06/10 02:43:44;;;;;;;1.40;1.23;;;20.90;54.70;;;;;;4996918;28;20200;-70
2022/06/10 02:46:12;;;;;;;1.33;1.23;;;20.90;54.50;;;;;;4995534;28;20201;-70
2022/06/10 02:48:42;;;;;;;1.73;1.20;;;20.90;54.60;;;;;;4995585;28;20300;-70
2022/06/10 02:51:10;;;;;;;1.20;1.20;;;20.90;54.60;;;;;;4995516;28;20678;-70
2022/06/10 02:53:37;;;;;;;1.13;1.10;;;20.90;55.20;;;;;;4995464;28;20198;-70
2022/06/10 02:56:15;;;;;;;2.28;1.40;;;20.90;54.70;;;;;;4995900;28;20213;-70
2022/06/10 03:01:30;;;;;;;1.20;1.10;;;20.80;54.50;;;;;;4995497;28;20272;-69
2022/06/10 03:04:18;;;;;;;1.17;1.13;;;20.90;54.60;;;;;;4995156;28;20216;-69
2022/06/10 03:07:00;;;;;;;1.30;1.20;;;20.80;54.50;;;;;;4995376;28;20201;-70
2022/06/10 03:09:34;;;;;;;1.30;1.20;;;20.80;54.50;;;;;;4995250;28;20198;-70
2022/06/10 03:12:06;;;;;;;1.38;1.20;;;20.80;54.50;;;;;;4995099;28;20194;-69
2022/06/10 03:14:41;;;;;;;1.83;1.25;;;20.80;54.30;;;;;;4994451;28;20248;-69
2022/06/10 03:17:12;;;;;;;1.50;1.40;;;20.80;54.10;;;;;;4994969;28;20236;-70
2022/06/10 03:19:45;;;;;;;1.50;1.40;;;20.80;54.10;;;;;;4996635;28;20216;-70
2022/06/10 03:22:20;;;;;;;1.52;1.42;;;20.80;54.10;;;;;;4996124;28;20197;-69
2022/06/10 03:24:53;;;;;;;1.75;1.40;;;20.80;54.40;;;;;;4995293;28;20247;-70
2022/06/10 03:27:23;;;;;;;1.38;1.27;;;20.80;54.40;;;;;;4995287;28;20225;-70
2022/06/10 03:29:52;;;;;;;1.30;1.20;;;20.80;54.60;;;;;;4995504;28;20189;-70
2022/06/10 03:32:22;;;;;;;1.40;1.30;;;20.90;54.70;;;;;;4997058;28;20198;-69
2022/06/10 03:34:52;;;;;;;1.40;1.30;;;20.90;54.50;;;;;;4997365;28;20174;-70
2022/06/10 03:37:22;;;;;;;1.38;1.27;;;20.90;54.40;;;;;;4996377;28;20222;-70
2022/06/10 03:39:53;;;;;;;1.33;1.20;;;21.00;54.20;;;;;;4995097;28;20193;-70
2022/06/10 03:42:22;;;;;;;1.38;1.30;;;21.00;54.30;;;;;;4995134;28;20579;-69
2022/06/10 03:44:52;;;;;;;1.92;1.50;;;21.00;54.00;;;;;;4996120;28;20277;-70
2022/06/10 03:47:20;;;;;;;3.05;1.42;;;21.00;54.20;;;;;;4996007;28;20210;-69
2022/06/10 03:49:50;;;;;;;1.45;1.35;;;21.10;54.20;;;;;;4994777;28;20213;-70
2022/06/10 03:52:20;;;;;;;1.50;1.40;;;21.10;54.10;;;;;;4995026;28;20292;-70
2022/06/10 03:54:47;;;;;;;1.55;1.42;;;21.10;54.10;;;;;;4996071;28;20193;-70
2022/06/10 03:57:16;;;;;;;1.67;1.50;;;21.10;53.80;;;;;;4994345;28;20233;-70
2022/06/10 03:59:43;;;;;;;2.28;1.40;;;21.10;53.50;;;;;;4995513;28;20193;-70
2022/06/10 04:02:11;;;;;;;1.67;1.42;;;21.10;53.60;;;;;;4994631;28;20292;-70
2022/06/10 04:04:39;;;;;;;1.65;1.48;;;21.10;53.60;;;;;;4994244;28;20644;-70
2022/06/10 04:07:06;;;;;;;2.03;1.40;;;21.20;53.60;;;;;;4995710;28;20604;-69
2022/06/10 04:09:34;;;;;;;1.27;1.17;;;21.10;53.60;;;;;;4994522;28;20198;-70
2022/06/10 04:12:02;;;;;;;1.40;1.30;;;21.20;53.40;;;;;;4995497;28;20200;-70
2022/06/10 04:14:29;;;;;;;2.25;1.30;;;21.20;53.40;;;;;;4993898;28;20252;-70
2022/06/10 04:16:56;;;;;;;1.45;1.35;;;21.20;53.40;;;;;;4993726;28;20218;-69
2022/06/10 04:19:23;;;;;;;1.40;1.30;;;21.20;53.40;;;;;;4995264;28;20190;-69
2022/06/10 04:21:50;;;;;;;1.77;1.50;;;21.20;53.40;;;;;;4994111;28;20577;-69
2022/06/10 04:24:17;;;;;;;1.40;1.30;;;21.20;53.40;;;;;;4993404;28;20233;-68
2022/06/10 04:26:46;;;;;;;1.40;1.30;;;21.20;53.40;;;;;;4993714;28;20241;-69
2022/06/10 04:29:14;;;;;;;1.60;1.50;;;21.20;53.20;;;;;;4995167;28;20264;-70
2022/06/10 04:31:42;;;;;;;1.58;1.30;;;21.20;53.20;;;;;;4993693;28;20201;-70
2022/06/10 04:34:11;;;;;;;1.33;1.23;;;21.30;53.20;;;;;;4993842;28;20201;-70
2022/06/10 04:36:38;;;;;;;1.88;1.38;;;21.30;53.10;;;;;;4993506;28;20221;-70
2022/06/10 04:39:05;;;;;;;1.90;1.80;;;21.30;53.30;;;;;;4993581;28;20271;-71
2022/06/10 04:41:33;;;;;;;1.60;1.50;;;21.40;53.40;;;;;;4993553;28;20197;-71
2022/06/10 04:44:01;;;;;;;1.83;1.40;;;21.40;52.90;;;;;;4993643;28;20211;-70
2022/06/10 04:46:30;;;;;;;1.90;1.60;;;21.60;52.10;;;;;;4993930;28;20204;-68
2022/06/10 04:48:57;;;;;;;2.35;1.70;;;21.70;50.60;;;;;;4994099;28;20202;-71
2022/06/10 04:51:24;;;;;;;3.67;1.83;;;21.80;50.30;;;;;;4993216;28;20197;-68
2022/06/10 04:53:52;;;;;;;2.00;1.70;;;21.90;48.90;;;;;;4993793;28;20304;-70
2022/06/10 04:56:19;;;;;;;2.10;1.90;;;22.00;48.30;;;;;;4993158;28;20252;-71
2022/06/10 04:58:46;;;;;;;2.83;1.70;;;22.00;47.60;;;;;;4994663;28;20217;-70
2022/06/10 05:01:14;;;;;;;3.10;1.80;;;22.10;47.50;;;;;;4996482;28;20205;-70
2022/06/10 05:03:42;;;;;;;3.05;1.67;;;22.10;47.40;;;;;;4996782;28;20194;-70
2022/06/10 05:06:09;;;;;;;2.40;1.80;;;22.10;47.40;;;;;;4994752;28;20247;-70
2022/06/10 05:08:36;;;;;;;2.55;1.77;;;22.10;47.40;;;;;;4994388;28;20209;-70
2022/06/10 05:11:03;;;;;;;2.80;1.92;;;22.10;47.50;;;;;;4993150;28;20201;-70
2022/06/10 05:13:31;;;;;;;3.13;1.70;;;22.10;47.50;;;;;;4993143;28;20197;-70
2022/06/10 05:15:58;;;;;;;3.00;1.83;;;22.10;47.60;;;;;;4994347;28;20220;-70
2022/06/10 05:18:27;;;;;;;3.65;1.80;;;22.20;47.60;;;;;;4993014;28;20227;-70
2022/06/10 05:20:54;;;;;;;2.65;2.20;;;22.20;47.60;;;;;;4993252;28;20198;-71
2022/06/10 05:23:23;;;;;;;3.63;1.98;;;22.40;47.70;;;;;;4993302;28;20728;-70
2022/06/10 05:25:50;;;;;;;2.08;1.80;;;22.70;47.40;;;;;;4992934;28;20685;-70
2022/06/10 05:28:17;;;;;;;1.70;1.60;;;23.00;47.30;;;;;;4993358;28;20321;-70
2022/06/10 05:30:44;;;;;;;2.33;1.73;;;23.10;47.00;;;;;;4993103;28;20197;-71
2022/06/10 05:33:12;;;;;;;3.25;2.03;;;23.30;46.70;;;;;;4994404;28;20565;-71
2022/06/10 05:35:40;;;;;;;3.38;2.13;;;23.50;46.40;;;;;;4992527;28;20611;-70
2022/06/10 05:38:07;;;;;;;3.03;1.90;;;23.70;46.20;;;;;;4997779;28;20217;-70
2022/06/10 05:40:34;;;;;;;2.83;2.00;;;23.80;45.90;;;;;;4996737;28;20204;-71
2022/06/10 05:43:01;;;;;;;3.33;2.15;;;24.00;45.70;;;;;;4996833;28;20208;-70
2022/06/10 05:45:28;;;;;;;3.83;2.10;;;24.10;45.50;;;;;;4997486;28;20629;-70
2022/06/10 05:47:57;;;;;;;2.58;1.88;;;24.20;45.20;;;;;;4996425;28;20217;-71
2022/06/10 05:50:25;;;;;;;3.80;1.80;;;24.30;45.00;;;;;;4998803;28;20196;-70
2022/06/10 05:52:55;;;;;;;2.30;1.60;;;24.50;45.00;;;;;;4997798;28;20244;-71
2022/06/10 05:55:22;;;;;;;1.77;1.65;;;24.50;45.10;;;;;;4996479;28;20624;-71
2022/06/10 05:57:51;;;;;;;1.98;1.50;;;24.60;44.90;;;;;;4996298;28;20652;-71
2022/06/10 06:00:21;;;;;;;3.35;1.80;;;24.70;45.00;;;;;;4997539;28;20566;-70
2022/06/10 06:02:48;;;;;;;2.33;1.88;;;24.80;44.80;;;;;;4996200;28;20205;-71
2022/06/10 06:05:15;;;;;;;4.15;1.67;;;24.90;45.30;;;;;;4997931;28;20196;-71
2022/06/10 06:07:43;;;;;;;1.95;1.60;;;25.00;44.50;;;;;;4997282;28;20241;-70
2022/06/10 06:10:13;;;;;;;1.60;1.50;;;25.10;45.00;;;;;;4996203;28;20627;-71
2022/06/10 06:12:40;;;;;;;1.77;1.67;;;25.20;44.20;;;;;;4997220;28;20236;-71
2022/06/10 06:15:08;;;;;;;2.63;1.70;;;25.30;43.90;;;;;;4996214;28;20197;-70
2022/06/10 06:17:35;;;;;;;3.17;1.60;;;25.40;44.00;;;;;;4996474;28;20233;-71
2022/06/10 06:20:02;;;;;;;1.83;1.48;;;25.40;43.80;;;;;;4995946;28;20208;-71
2022/06/10 06:22:29;;;;;;;2.47;1.70;;;25.50;43.60;;;;;;4996271;28;20296;-70
2022/06/10 06:24:56;;;;;;;3.28;1.50;;;25.60;43.50;;;;;;4995981;28;20206;-70
2022/06/10 06:27:24;;;;;;;2.85;1.35;;;25.70;43.40;;;;;;4995739;28;20241;-69
2022/06/10 06:29:51;;;;;;;1.88;1.63;;;25.70;43.30;;;;;;4995706;28;20224;-71
2022/06/10 06:32:18;;;;;;;1.83;1.38;;;25.80;43.30;;;;;;4995971;28;20236;-71
2022/06/10 06:34:45;;;;;;;1.67;1.55;;;25.90;43.00;;;;;;4996895;28;20216;-71
2022/06/10 06:37:14;;;;;;;2.47;1.40;;;26.00;42.90;;;;;;4995676;28;20605;-70
2022/06/10 06:39:41;;;;;;;1.85;1.60;;;26.00;42.70;;;;;;4995612;28;20198;-70
2022/06/10 06:42:09;;;;;;;1.67;1.58;;;26.10;42.70;;;;;;4996950;28;20193;-71
2022/06/10 06:44:44;;;;;;;1.80;1.30;;;26.20;42.50;;;;;;4996046;28;20189;-70
2022/06/10 06:47:12;;;;;;;3.22;1.50;;;26.20;42.40;;;;;;4995334;28;20217;-70
2022/06/10 06:49:39;;;;;;;2.08;1.60;;;26.30;42.30;;;;;;4995425;28;20688;-70
2022/06/10 06:52:08;;;;;;;2.92;1.60;;;26.40;42.20;;;;;;4996922;28;20279;-71
2022/06/10 06:54:35;;;;;;;1.65;1.40;;;26.40;42.10;;;;;;4996806;28;20190;-70
2022/06/10 06:57:03;;;;;;;2.28;1.60;;;26.50;42.00;;;;;;4995404;28;20280;-71
2022/06/10 06:59:31;;;;;;;1.55;1.40;;;26.50;41.90;;;;;;4995362;28;20197;-70
2022/06/10 07:01:59;;;;;;;2.22;1.70;;;26.60;41.80;;;;;;4995333;28;20252;-70
2022/06/10 07:04:26;;;;;;;2.08;1.88;;;26.60;41.60;;;;;;4995433;28;20201;-70
2022/06/10 07:06:53;;;;;;;1.92;1.50;;;26.70;41.70;;;;;;4996415;28;20241;-70
2022/06/10 07:09:21;;;;;;;1.55;1.40;;;26.70;41.60;;;;;;4995255;28;20211;-71
2022/06/10 07:11:47;;;;;;;1.58;1.48;;;26.80;41.60;;;;;;4996505;28;20253;-72
2022/06/10 07:14:15;;;;;;;2.50;1.40;;;26.80;41.40;;;;;;4995056;28;20256;-71
2022/06/10 07:16:42;;;;;;;1.73;1.25;;;26.90;41.40;;;;;;4996121;28;20680;-71
2022/06/10 07:19:11;;;;;;;2.45;1.50;;;26.90;41.30;;;;;;4995065;28;20623;-70
2022/06/10 07:21:38;;;;;;;2.53;1.65;;;26.90;41.20;;;;;;4995008;28;20199;-70
2022/06/10 07:24:06;;;;;;;1.77;1.52;;;27.00;41.10;;;;;;4994889;28;20624;-70
2022/06/10 07:26:34;;;;;;;1.48;1.38;;;27.00;41.00;;;;;;4996247;28;20239;-71
2022/06/10 07:29:01;;;;;;;1.65;1.55;;;27.10;41.00;;;;;;4994665;28;20204;-71
2022/06/10 07:31:28;;;;;;;1.73;1.50;;;27.10;40.90;;;;;;4994859;28;20689;-70
2022/06/10 07:33:57;;;;;;;1.73;1.63;;;27.10;40.80;;;;;;4996239;28;20216;-70
2022/06/10 07:36:26;;;;;;;1.92;1.50;;;27.20;40.80;;;;;;4996242;28;20281;-69
2022/06/10 07:38:54;;;;;;;1.70;1.60;;;27.20;41.30;;;;;;4996000;28;20216;-70
2022/06/10 07:44:05;;;;;;;1.75;1.40;;;27.20;40.50;;;;;;4995942;28;20196;-70
2022/06/10 07:46:32;;;;;;;1.67;1.40;;;27.30;40.50;;;;;;4994954;28;20577;-71
2022/06/10 07:48:59;;;;;;;1.40;1.30;;;27.30;40.50;;;;;;4994466;28;20554;-70
2022/06/10 07:51:28;;;;;;;2.15;1.60;;;27.40;40.50;;;;;;4994862;28;20197;-70
2022/06/10 07:53:54;;;;;;;1.48;1.38;;;27.40;40.40;;;;;;4994461;28;20204;-69
2022/06/10 07:56:22;;;;;;;1.92;1.50;;;27.40;40.30;;;;;;4994547;28;20295;-71
2022/06/10 07:58:50;;;;;;;1.40;1.30;;;27.40;40.30;;;;;;4994182;28;20252;-71
2022/06/10 08:01:17;;;;;;;1.60;1.50;;;27.40;40.20;;;;;;4997505;28;20215;-71
2022/06/10 08:03:44;;;;;;;1.70;1.60;;;27.40;40.20;;;;;;5013504;28;20256;-72
2022/06/10 08:06:20;;;;;;;2.08;1.40;;;27.50;40.20;;;;;;5019790;28;20173;-71
2022/06/10 08:08:48;;;;;;;1.55;1.45;;;27.50;40.30;;;;;;4999338;28;20599;-71
2022/06/10 08:11:16;;;;;;;1.48;1.30;;;27.50;40.20;;;;;;4996025;28;20197;-71
2022/06/10 08:13:43;;;;;;;1.50;1.40;;;27.50;40.20;;;;;;4994060;28;20746;-71
2022/06/10 08:16:10;;;;;;;2.35;1.40;;;27.60;40.30;;;;;;4995136;28;20189;-71
2022/06/10 08:18:37;;;;;;;1.40;1.30;;;27.50;40.10;;;;;;4994234;28;20225;-71
2022/06/10 08:23:51;;;;;;;2.65;1.50;;;27.50;40.20;;;;;;4994275;28;20211;-70
2022/06/10 08:26:19;;;;;;;1.70;1.60;;;27.60;40.80;;;;;;4993749;28;20200;-71
2022/06/10 08:28:46;;;;;;;2.38;1.55;;;27.60;40.10;;;;;;4993491;28;20235;-70
2022/06/10 08:31:14;;;;;;;1.63;1.42;;;27.60;40.10;;;;;;4993972;28;20197;-71
2022/06/10 08:33:41;;;;;;;1.58;1.40;;;27.60;40.10;;;;;;4993604;28;20582;-71
2022/06/10 08:36:08;;;;;;;1.70;1.40;;;27.60;40.20;;;;;;4995125;28;20690;-71
2022/06/10 08:38:35;;;;;;;1.52;1.42;;;27.60;40.20;;;;;;4993672;28;20716;-71
2022/06/10 08:41:06;;;;;;;1.50;1.40;;;27.70;40.20;;;;;;4994061;28;20197;-71
2022/06/10 08:43:53;;;;;;;1.75;1.45;;;27.70;40.20;;;;;;4994329;28;20211;-71
2022/06/10 08:46:31;;;;;;;1.40;1.30;;;27.70;40.10;;;;;;4993709;28;20197;-71
2022/06/10 08:49:07;;;;;;;1.55;1.45;;;27.80;40.20;;;;;;5000773;28;20176;-71
2022/06/10 08:51:36;;;;;;;1.63;1.42;;;27.80;40.10;;;;;;4995807;28;20714;-71
2022/06/10 08:54:10;;;;;;;1.92;1.55;;;27.80;40.00;;;;;;4993605;28;20666;-70
2022/06/10 08:56:40;;;;;;;1.83;1.35;;;27.80;40.00;;;;;;4993769;28;20189;-71
2022/06/10 08:59:11;;;;;;;1.73;1.45;;;27.80;40.00;;;;;;4993365;28;20307;-70
2022/06/10 09:01:43;;;;;;;2.13;1.58;;;27.90;40.10;;;;;;4993710;28;20185;-71
2022/06/10 09:04:30;;;;;;;1.50;1.40;;;27.80;40.00;;;;;;4993173;28;20386;-71
2022/06/10 09:06:58;;;;;;;1.35;1.25;;;27.90;40.00;;;;;;4994546;28;20224;-71
2022/06/10 09:09:26;;;;;;;2.40;1.30;;;27.90;39.90;;;;;;4992956;28;20196;-70
2022/06/10 09:11:57;;;;;;;1.73;1.40;;;27.90;39.80;;;;;;4992877;28;20192;-70
2022/06/10 09:14:25;;;;;;;1.30;1.30;;;27.90;39.80;;;;;;4992936;28;20197;-71
2022/06/10 09:16:59;;;;;;;1.45;1.35;;;27.80;39.80;;;;;;4994147;28;20215;-70
2022/06/10 09:19:30;;;;;;;1.50;1.40;;;27.90;40.00;;;;;;4994285;28;20283;-69
2022/06/10 09:22:00;;;;;;;1.60;1.20;;;27.80;39.90;;;;;;4993208;28;20201;-71
2022/06/10 09:24:31;;;;;;;2.03;1.50;;;27.80;40.00;;;;;;4993148;28;20201;-70
2022/06/10 09:27:10;;;;;;;1.45;1.35;;;27.80;40.00;;;;;;4994373;28;20694;-70
2022/06/10 09:29:38;;;;;;;1.52;1.42;;;27.80;40.00;;;;;;4992927;28;20284;-71
2022/06/10 09:32:09;;;;;;;1.48;1.38;;;27.80;40.00;;;;;;4992851;28;20197;-70
2022/06/10 09:34:46;;;;;;;1.88;1.52;;;27.80;40.00;;;;;;4992836;28;20189;-71
2022/06/10 09:37:16;;;;;;;1.58;1.35;;;27.80;39.90;;;;;;4992969;28;20216;-71
2022/06/10 09:42:43;;;;;;;1.50;1.40;;;27.80;40.00;;;;;;4992945;28;20197;-71
2022/06/10 09:45:15;;;;;;;1.50;1.40;;;27.80;40.00;;;;;;4993325;28;20298;-70
2022/06/10 09:47:50;;;;;;;1.60;1.40;;;27.80;40.10;;;;;;4994190;28;20209;-71
2022/06/10 09:50:21;;;;;;;1.55;1.30;;;27.70;40.10;;;;;;4992597;28;20204;-71
2022/06/10 09:52:54;;;;;;;1.45;1.35;;;27.70;40.20;;;;;;4992670;28;20189;-70
2022/06/10 09:55:47;;;;;;;1.85;1.38;;;27.60;40.20;;;;;;4993138;28;20193;-71
2022/06/10 09:58:32;;;;;;;2.38;1.40;;;27.60;40.30;;;;;;4986807;28;20220;-71
2022/06/10 10:01:03;;;;;;;1.25;1.15;;;27.60;40.40;;;;;;4992763;28;20193;-71
2022/06/10 10:03:42;;;;;;;1.98;1.40;;;27.60;40.50;;;;;;4992694;28;20211;-71
2022/06/10 10:06:26;;;;;;;2.08;1.40;;;27.60;40.50;;;;;;4992507;28;20282;-71
2022/06/10 10:08:57;;;;;;;1.10;1.10;;;27.60;40.60;;;;;;4993770;28;20578;-71
2022/06/10 10:11:29;;;;;;;1.10;1.10;;;27.50;40.70;;;;;;4992184;28;20189;-70
2022/06/10 10:14:02;;;;;;;1.80;1.40;;;27.50;40.70;;;;;;4992309;28;20231;-71
2022/06/10 10:16:36;;;;;;;1.50;1.38;;;27.50;40.80;;;;;;4992788;28;20205;-71
2022/06/10 10:19:12;;;;;;;1.75;1.40;;;27.40;40.80;;;;;;4992263;28;20230;-71
2022/06/10 10:21:42;;;;;;;1.42;1.20;;;27.40;41.00;;;;;;4993508;28;20548;-71
2022/06/10 10:24:11;;;;;;;1.40;1.30;;;27.40;41.10;;;;;;4995817;28;20197;-71
2022/06/10 10:26:39;;;;;;;1.35;1.20;;;27.30;41.20;;;;;;4995858;28;20239;-72
2022/06/10 10:29:12;;;;;;;1.10;1.10;;;27.30;41.20;;;;;;4996711;28;20201;-71
2022/06/10 10:31:43;;;;;;;1.42;1.30;;;27.20;41.30;;;;;;4996031;28;20193;-71
2022/06/10 10:34:15;;;;;;;1.45;1.35;;;27.20;41.40;;;;;;4996043;28;20732;-71
2022/06/10 10:36:48;;;;;;;1.63;1.33;;;27.20;41.60;;;;;;4998146;28;20189;-71
2022/06/10 10:39:17;;;;;;;1.30;1.20;;;27.10;41.60;;;;;;4996339;28;20283;-71
2022/06/10 10:41:45;;;;;;;1.38;1.25;;;27.10;41.90;;;;;;4995794;28;20654;-71
2022/06/10 10:44:26;;;;;;;1.75;1.50;;;27.10;41.90;;;;;;4995828;28;20200;-71
2022/06/10 10:46:59;;;;;;;1.60;1.20;;;27.00;41.90;;;;;;4995559;28;20275;-70
2022/06/10 10:49:28;;;;;;;1.42;1.33;;;27.00;41.90;;;;;;4995506;28;20251;-70
2022/06/10 10:51:56;;;;;;;1.30;1.20;;;26.90;42.00;;;;;;4996803;28;20189;-70
2022/06/10 10:54:25;;;;;;;1.20;1.10;;;26.90;42.10;;;;;;4995495;28;20628;-70
2022/06/10 10:56:52;;;;;;;1.30;1.20;;;26.80;42.20;;;;;;4995551;28;20705;-70
2022/06/10 10:59:29;;;;;;;2.80;1.35;;;26.80;42.30;;;;;;4995424;28;20225;-69
2022/06/10 11:01:56;;;;;;;1.42;1.33;;;26.80;42.50;;;;;;4996603;28;20173;-71
2022/06/10 11:04:28;;;;;;;1.40;1.30;;;26.70;42.50;;;;;;4995327;28;20196;-71
2022/06/10 11:07:18;;;;;;;1.30;1.20;;;26.70;42.60;;;;;;4996777;28;20220;-70
2022/06/10 11:09:46;;;;;;;1.60;1.23;;;26.60;42.60;;;;;;4995293;28;20280;-70
2022/06/10 11:12:15;;;;;;;1.30;1.20;;;26.60;42.80;;;;;;4995343;28;20281;-71
2022/06/10 11:14:45;;;;;;;1.60;1.45;;;26.60;42.90;;;;;;4995385;28;20233;-71
2022/06/10 11:17:16;;;;;;;1.88;1.20;;;26.60;42.90;;;;;;4995527;28;20276;-71
2022/06/10 11:19:46;;;;;;;1.40;1.30;;;26.60;43.00;;;;;;4995287;28;20220;-71
2022/06/10 11:22:23;;;;;;;1.23;1.10;;;26.50;43.10;;;;;;4996550;28;20280;-71
2022/06/10 11:24:51;;;;;;;1.30;1.20;;;26.50;43.10;;;;;;4996482;28;20176;-71
2022/06/10 11:27:30;;;;;;;1.40;1.30;;;26.50;43.30;;;;;;4994941;28;20233;-70
2022/06/10 11:30:00;;;;;;;1.65;1.30;;;26.40;43.40;;;;;;4998324;28;20173;-71
2022/06/10 11:32:29;;;;;;;1.27;1.20;;;26.40;43.40;;;;;;4995038;28;20193;-71
2022/06/10 11:34:58;;;;;;;1.30;1.20;;;26.40;43.60;;;;;;4995469;28;20199;-71
2022/06/10 11:37:28;;;;;;;1.30;1.20;;;26.30;43.70;;;;;;4995944;28;20232;-70
2022/06/10 11:40:04;;;;;;;1.30;1.20;;;26.30;43.70;;;;;;4999067;28;20209;-71
2022/06/10 11:42:33;;;;;;;1.20;1.20;;;26.30;43.70;;;;;;4996498;28;20200;-71
2022/06/10 11:45:06;;;;;;;1.65;1.50;;;26.30;43.80;;;;;;4996544;28;20185;-71
2022/06/10 11:47:36;;;;;;;1.40;1.30;;;26.20;43.80;;;;;;4995815;28;20219;-71
2022/06/10 11:50:06;;;;;;;1.40;1.30;;;26.20;43.90;;;;;;4995493;28;20217;-70
2022/06/10 11:52:36;;;;;;;1.17;1.17;;;26.20;43.90;;;;;;4996402;28;20189;-71
2022/06/10 11:55:06;;;;;;;1.42;1.33;;;26.20;43.90;;;;;;4994652;28;20201;-71
2022/06/10 12:00:27;;;;;;;1.67;1.35;;;26.20;44.00;;;;;;5020322;23;20304;-71
2022/06/10 12:03:01;;;;;;;1.48;1.30;;;26.20;44.10;;;;;;5014764;28;20284;-72
2022/06/10 12:05:33;;;;;;;1.20;1.10;;;26.20;44.10;;;;;;5015750;28;20185;-72
2022/06/10 12:08:06;;;;;;;1.50;1.40;;;26.20;44.10;;;;;;5015434;28;20272;-72
2022/06/10 12:10:44;;;;;;;1.48;1.20;;;26.20;44.20;;;;;;5013936;28;20196;-72
2022/06/10 12:13:11;;;;;;;1.40;1.30;;;26.20;44.30;;;;;;5014424;28;20204;-72
2022/06/10 12:15:44;;;;;;;1.30;1.20;;;26.10;44.30;;;;;;5014870;28;20192;-72
2022/06/10 12:18:11;;;;;;;1.65;1.30;;;26.10;45.00;;;;;;5015717;28;20188;-72
2022/06/10 12:20:42;;;;;;;1.38;1.23;;;26.10;44.40;;;;;;5013692;28;20270;-72
2022/06/10 12:23:12;;;;;;;1.52;1.33;;;26.10;44.40;;;;;;5013685;28;20247;-72
2022/06/10 12:25:49;;;;;;;1.20;1.10;;;26.10;44.50;;;;;;5013263;28;20192;-72
2022/06/10 12:28:26;;;;;;;1.42;1.20;;;26.00;44.60;;;;;;5013471;28;20188;-72
2022/06/10 12:31:00;;;;;;;1.10;1.10;;;26.00;44.60;;;;;;5013447;28;20263;-72
2022/06/10 12:33:32;;;;;;;1.30;1.20;;;26.00;44.70;;;;;;5013000;28;20179;-71
2022/06/10 12:35:59;;;;;;;1.33;1.23;;;26.00;44.70;;;;;;5014540;28;20168;-72
2022/06/10 12:38:27;;;;;;;1.30;1.20;;;25.90;44.70;;;;;;5013097;28;20688;-72
2022/06/10 12:40:56;;;;;;;1.30;1.20;;;25.90;44.70;;;;;;5013154;28;20230;-72
2022/06/10 12:43:24;;;;;;;1.38;1.27;;;25.90;44.80;;;;;;5012931;28;20574;-72
2022/06/10 12:45:54;;;;;;;1.40;1.30;;;25.90;44.80;;;;;;5012545;28;20200;-72
2022/06/10 12:48:25;;;;;;;1.20;1.13;;;25.90;44.90;;;;;;5013947;28;20181;-72
2022/06/10 12:50:55;;;;;;;1.40;1.30;;;25.90;44.90;;;;;;5013941;28;20228;-71
2022/06/10 12:53:43;;;;;;;1.40;1.30;;;25.90;44.90;;;;;;5012768;28;20292;-72
2022/06/10 12:56:20;;;;;;;1.10;1.10;;;25.90;44.90;;;;;;5014037;28;20248;-72
2022/06/10 12:58:49;;;;;;;1.17;1.17;;;25.90;45.00;;;;;;5012665;28;20220;-72
2022/06/10 13:01:22;;;;;;;1.30;1.20;;;25.90;45.00;;;;;;5012330;28;20303;-72
2022/06/10 13:03:50;;;;;;;1.60;1.13;;;25.90;45.10;;;;;;5014268;28;20193;-72
2022/06/10 13:07:00;;;;;;;1.30;1.20;;;25.80;45.10;;;;;;5014093;28;20649;-72
2022/06/10 13:09:32;;;;;;;1.10;1.00;;;25.80;45.10;;;;;;4998229;28;20270;-72
2022/06/10 13:12:01;;;;;;;1.40;1.30;;;25.80;45.20;;;;;;5012464;28;20224;-72
2022/06/10 13:14:39;;;;;;;1.30;1.20;;;25.80;45.30;;;;;;5013336;28;20567;-72
2022/06/10 13:17:22;;;;;;;1.25;1.15;;;25.80;45.30;;;;;;5012771;28;20262;-72